Terminal Aerodrome Forecast
Issued by NWS Twin Cities, MN

Home | Current Version | Previous Version | Text Only | Print | Product List | Glossary Off
Versions: 1 2 3 4 5 6 7 8 9 10 11 12 13 14 15 16 17 18 19 20 21 22 23 24 25

000
FTUS43 KMPX 150845 AAA
TAFMSP
TAF AMD
KMSP 150845Z 1509/1612 13008KT P6SM SKC
     FM151600 14014G23KT P6SM SCT250
     FM160000 13010KT P6SM BKN120=

USA.gov is the U.S. government's official web portal to all federal, state and local government web resources and services.